Annapolis Junction, Maryland
Current Conditions -  °F | °C
As of 2:51 AM on Friday 19 Dec 2014 (Local Time) from KFME Reporting Station
Overcast Overcast  
Wind Chill: 28°   Ceiling: 10000
Heat Index: 34°   Visibility: 10mi
Dew Point: 25°   Wind: 7mph
Humidity: 70%   Direction: 290°WNW
Pressure: 30.13"   Gusts: NA
Location:  39.13°N, 76.8°W
Report Text: KFME 190751Z AUTO 29006KT 10SM SCT035 OVC100 01/M04 A3013 RMK AO1
Loading
Personal Weather Stations






























Interactive Weather Map New forecast layout! Learn more

10-Day Weather Forecast

Advertisements
Track Severe Weather on mobile